KBFF/BFF METAR and TAF weather

Enter ICAO airport designator
Station Type Date Time Source
KBFF METAR 2019/12/08 18:53 UTC NOAA

KBFF 081853Z AUTO 00000KT 10SM BKN095 11/01 A2968 RMK AO2 SLP046 T01110011


Station Type Date Time Source
KBFF Decoded METAR 2019/12/08 18:53 UTC NOAA

SCOTTSBLUFF HEILIG FIELD, NE, United States (KBFF) 41-52N 103-36W 1203M
Dec 08, 2019 - 01:53 PM EST / 2019.12.08 1853 UTC
Wind: Calm:0
Visibility: 10 mile(s):0
Sky conditions: mostly cloudy
Temperature: 52.0 F (11.1 C)
Dew Point: 34.0 F (1.1 C)
Relative Humidity: 50%
Pressure (altimeter): 29.68 in. Hg (1005 hPa)
ob: KBFF 081853Z AUTO 00000KT 10SM BKN095 11/01 A2968 RMK AO2 SLP046 T01110011
cycle: 19

Station Type Date Time Source
KBFF TAF 2019/12/08 18:36 UTC NOAA

TAF KBFF 081732Z 0818/0918 13004KT P6SM SKC
FM081900 24010KT P6SM OVC150
FM090500 32015KT P6SM OVC035
FM090600 33015KT P6SM VCSH BKN015 OVC030
FM090900 33016KT 6SM -SHSN BR OVC025
FM091400 32012KT P6SM FEW250

Example: see airport list